Fountain Hills, Arizona
Current Conditions -  °F | °C
As of 7:47 PM on Sunday 25 Jan 2015 (Local Time) from KFFZ Reporting Station
Broken Clouds Broken Clouds  
Wind Chill: 63°   Ceiling: 25000
Heat Index: 63°   Visibility: 30mi
Dew Point: 25°   Wind: 6mph
Humidity: 24%   Direction: 40°NE
Pressure: 30.08"   Gusts: NA
Location:  33.61°N, 111.71°W
Report Text: KFFZ 260247Z 04005KT 30SM BKN250 17/M04 A3008 RMK WIND ESTIMATED
Loading
Personal Weather Stations






























Interactive Weather Map New forecast layout! Learn more

10-Day Weather Forecast

Advertisements
Track Severe Weather on mobile